createdAt,value
2023-04-01T00:00:06.759Z,2.48
2023-04-01T00:01:06.908Z,2.71
2023-04-01T00:02:06.981Z,2.53
2023-04-01T00:03:07.090Z,2.89
2023-04-01T00:04:07.109Z,3.20
2023-04-01T00:05:07.189Z,2.44
2023-04-01T00:06:07.254Z,2.77
2023-04-01T00:07:07.331Z,2.69
2023-04-01T00:08:07.381Z,2.50
2023-04-01T00:09:07.457Z,2.82
2023-04-01T00:10:07.564Z,2.52
2023-04-01T00:11:07.640Z,2.63
2023-04-01T00:12:07.704Z,2.23
2023-04-01T00:13:07.775Z,2.59
2023-04-01T00:14:07.855Z,2.49
2023-04-01T00:15:07.945Z,2.38
2023-04-01T00:16:19.787Z,2.61
2023-04-01T00:17:09.177Z,2.67
2023-04-01T00:18:08.063Z,2.63
2023-04-01T00:19:08.124Z,2.76
2023-04-01T00:20:08.133Z,2.40
2023-04-01T00:21:08.174Z,2.17
2023-04-01T00:22:08.213Z,2.47
2023-04-01T00:23:08.244Z,2.71
2023-04-01T00:24:08.286Z,2.43
2023-04-01T00:25:08.255Z,2.40
2023-04-01T00:26:08.322Z,2.34
2023-04-01T00:27:08.346Z,2.47
2023-04-01T00:28:08.375Z,2.17
2023-04-01T00:29:08.467Z,2.53
2023-04-01T00:30:08.522Z,2.35
2023-04-01T00:31:08.678Z,2.33
2023-04-01T00:32:08.689Z,2.38
2023-04-01T00:33:08.807Z,2.47
2023-04-01T00:34:08.831Z,2.39
2023-04-01T00:35:08.947Z,2.51
2023-04-01T00:36:09.005Z,2.68
2023-04-01T00:37:09.053Z,2.47
2023-04-01T00:38:09.132Z,2.26
2023-04-01T00:39:09.241Z,2.07
2023-04-01T00:40:09.264Z,2.18
2023-04-01T00:41:09.362Z,2.06
2023-04-01T00:42:09.450Z,2.90
2023-04-01T00:43:09.516Z,2.17
2023-04-01T00:44:09.586Z,2.73
2023-04-01T00:45:09.646Z,2.50
2023-04-01T00:46:09.728Z,2.71
2023-04-01T00:47:09.875Z,2.07
2023-04-01T00:48:09.961Z,2.36
2023-04-01T00:49:09.989Z,2.27
2023-04-01T00:50:10.054Z,2.40
2023-04-01T00:51:10.121Z,2.69
2023-04-01T00:52:10.208Z,2.28
2023-04-01T00:53:10.259Z,2.42
2023-04-01T00:54:10.363Z,2.25
2023-04-01T00:55:10.410Z,2.56
2023-04-01T00:56:10.484Z,2.12
2023-04-01T00:57:10.579Z,2.60
2023-04-01T00:58:10.639Z,2.28
2023-04-01T00:59:10.701Z,2.01
2023-04-01T01:00:10.808Z,2.34
2023-04-01T01:01:10.894Z,2.28
2023-04-01T01:02:10.945Z,2.25
2023-04-01T01:03:11.045Z,2.66
2023-04-01T01:04:11.089Z,2.29
2023-04-01T01:05:11.153Z,2.38
2023-04-01T01:06:11.248Z,2.36
2023-04-01T01:07:11.289Z,2.34
2023-04-01T01:08:11.383Z,2.38
2023-04-01T01:09:11.475Z,2.24
2023-04-01T01:10:11.544Z,2.16
2023-04-01T01:11:11.620Z,2.07
2023-04-01T01:12:11.738Z,2.46
2023-04-01T01:13:11.753Z,2.13
2023-04-01T01:14:11.795Z,2.04
2023-04-01T01:15:11.901Z,1.90
2023-04-01T01:16:11.996Z,2.04
2023-04-01T01:17:12.041Z,1.98
2023-04-01T01:18:12.129Z,2.05
2023-04-01T01:19:12.249Z,2.35
2023-04-01T01:20:23.060Z,2.20
2023-04-01T01:21:13.294Z,1.80
2023-04-01T01:22:12.356Z,2.13
2023-04-01T01:23:12.383Z,2.28
2023-04-01T01:24:12.418Z,2.04
2023-04-01T01:25:12.443Z,2.05
2023-04-01T01:26:12.471Z,2.11
2023-04-01T01:27:12.500Z,2.38
2023-04-01T01:28:12.551Z,2.30
2023-04-01T01:29:12.562Z,1.97
2023-04-01T01:30:12.573Z,2.59
2023-04-01T01:31:12.654Z,2.44
2023-04-01T01:32:12.631Z,2.00
2023-04-01T01:33:12.660Z,2.01
2023-04-01T01:34:12.713Z,2.30
2023-04-01T01:35:12.768Z,1.98
2023-04-01T01:36:12.848Z,2.11
2023-04-01T01:37:12.924Z,1.90
2023-04-01T01:38:13.053Z,2.25
2023-04-01T01:39:13.085Z,2.07
2023-04-01T01:40:13.136Z,1.89
2023-04-01T01:41:13.201Z,2.27
2023-04-01T01:42:13.279Z,2.28
2023-04-01T01:43:13.362Z,2.03
2023-04-01T01:44:13.430Z,2.30
2023-04-01T01:45:13.498Z,2.19
2023-04-01T01:46:13.647Z,2.10
2023-04-01T01:47:13.677Z,2.47
2023-04-01T01:48:13.727Z,1.89
2023-04-01T01:49:13.823Z,2.15
2023-04-01T01:50:13.892Z,1.96
2023-04-01T01:51:13.973Z,1.83
2023-04-01T01:52:14.012Z,2.19
2023-04-01T01:53:14.109Z,1.89
2023-04-01T01:54:14.138Z,2.19
2023-04-01T01:55:14.234Z,1.87
2023-04-01T01:56:14.308Z,2.00
2023-04-01T01:57:14.434Z,2.14
2023-04-01T01:58:14.466Z,1.97
2023-04-01T01:59:14.508Z,2.27
2023-04-01T02:00:14.683Z,1.64
2023-04-01T02:01:14.677Z,1.77
2023-04-01T02:02:14.728Z,2.13
2023-04-01T02:03:15.421Z,1.96
2023-04-01T02:04:14.933Z,1.95
2023-04-01T02:05:14.984Z,1.89
2023-04-01T02:06:15.022Z,1.88
2023-04-01T02:07:15.070Z,1.97
2023-04-01T02:08:15.158Z,1.91
2023-04-01T02:09:15.301Z,2.15
2023-04-01T02:10:15.355Z,2.39
2023-04-01T02:11:15.362Z,1.76
2023-04-01T02:12:15.420Z,1.54
2023-04-01T02:13:15.536Z,1.84
2023-04-01T02:14:15.608Z,1.87
2023-04-01T02:15:15.692Z,1.46
2023-04-01T02:16:15.764Z,1.87
2023-04-01T02:17:15.800Z,1.82
2023-04-01T02:18:15.893Z,1.59
2023-04-01T02:19:15.966Z,1.83
2023-04-01T02:20:16.018Z,1.88
2023-04-01T02:21:16.086Z,1.94
2023-04-01T02:22:16.148Z,1.95
2023-04-01T02:23:16.264Z,2.17
2023-04-01T02:24:16.321Z,2.09
2023-04-01T02:25:16.421Z,1.80
2023-04-01T02:26:16.488Z,1.80
2023-04-01T02:27:16.563Z,1.79
2023-04-01T02:28:16.636Z,1.78
2023-04-01T02:29:16.688Z,1.99
2023-04-01T02:30:16.782Z,2.19
2023-04-01T02:31:16.859Z,1.85
2023-04-01T02:32:16.913Z,1.52
2023-04-01T02:33:16.982Z,1.77
2023-04-01T02:34:17.073Z,2.07
2023-04-01T02:35:17.142Z,1.77
2023-04-01T02:36:17.264Z,2.00
2023-04-01T02:37:17.311Z,1.77
2023-04-01T02:38:17.360Z,2.09
2023-04-01T02:39:17.429Z,2.03
2023-04-01T02:40:17.493Z,1.56
2023-04-01T02:41:17.603Z,1.73
2023-04-01T02:42:17.661Z,1.85
2023-04-01T02:43:17.730Z,1.79
2023-04-01T02:44:17.769Z,1.56
2023-04-01T02:45:17.884Z,1.77
2023-04-01T02:46:18.000Z,1.89
2023-04-01T02:47:17.999Z,1.72
2023-04-01T02:48:18.060Z,1.62
2023-04-01T02:49:18.164Z,1.84
2023-04-01T02:50:18.232Z,1.41
2023-04-01T02:51:18.574Z,1.94
2023-04-01T02:52:18.365Z,1.75
2023-04-01T02:53:18.458Z,1.40
2023-04-01T02:54:18.504Z,2.06
2023-04-01T02:55:18.571Z,1.34
2023-04-01T02:56:18.634Z,1.75
2023-04-01T02:57:18.731Z,1.90
2023-04-01T02:58:18.765Z,1.65
2023-04-01T02:59:18.854Z,1.80
2023-04-01T03:00:18.924Z,1.83
2023-04-01T03:01:19.013Z,1.78
2023-04-01T03:02:19.147Z,1.55
2023-04-01T03:03:19.244Z,1.59
2023-04-01T03:04:19.236Z,1.89
2023-04-01T03:05:19.278Z,1.65
2023-04-01T03:06:19.394Z,1.93
2023-04-01T03:07:19.472Z,1.93
2023-04-01T03:08:19.543Z,1.63
2023-04-01T03:09:19.613Z,1.60
2023-04-01T03:10:19.671Z,1.87
2023-04-01T03:11:19.752Z,2.14
2023-04-01T03:12:19.831Z,2.00
2023-04-01T03:13:19.928Z,1.57
2023-04-01T03:14:19.975Z,1.64
2023-04-01T03:15:20.065Z,1.81
2023-04-01T03:16:20.155Z,1.68
2023-04-01T03:17:20.178Z,1.80
2023-04-01T03:18:20.265Z,1.86
2023-04-01T03:19:20.342Z,1.49
2023-04-01T03:20:20.399Z,1.63
2023-04-01T03:21:20.480Z,1.75
2023-04-01T03:22:20.518Z,1.72
2023-04-01T03:23:20.623Z,1.63
2023-04-01T03:24:20.692Z,1.45
2023-04-01T03:25:20.727Z,1.38
2023-04-01T03:26:20.812Z,2.03
2023-04-01T03:27:20.868Z,1.28
2023-04-01T03:28:20.960Z,1.48
2023-04-01T03:29:21.039Z,2.05
2023-04-01T03:30:21.117Z,1.46
2023-04-01T03:31:23.615Z,1.81
2023-04-01T03:32:21.211Z,1.95
2023-04-01T03:33:21.228Z,1.92
2023-04-01T03:34:21.305Z,1.47
2023-04-01T03:35:21.258Z,1.47
2023-04-01T03:36:21.365Z,1.59
2023-04-01T03:37:21.321Z,1.61
2023-04-01T03:38:21.328Z,1.68
2023-04-01T03:39:21.338Z,1.68
2023-04-01T03:40:21.377Z,1.52
2023-04-01T03:41:21.378Z,1.55
2023-04-01T03:42:21.396Z,1.47
2023-04-01T03:43:21.457Z,1.81
2023-04-01T03:44:21.468Z,1.73
2023-04-01T03:45:21.493Z,1.49
2023-04-01T03:46:21.741Z,1.35
2023-04-01T03:47:21.536Z,1.60
2023-04-01T03:48:21.542Z,1.60
2023-04-01T03:49:21.593Z,1.30
2023-04-01T03:50:21.622Z,1.40
2023-04-01T03:51:21.603Z,1.83
2023-04-01T03:52:21.610Z,1.29
2023-04-01T03:53:21.630Z,1.68
2023-04-01T03:54:21.667Z,1.43
2023-04-01T03:55:21.723Z,1.55
2023-04-01T03:56:21.748Z,1.77
2023-04-01T03:57:21.790Z,1.46
2023-04-01T03:58:21.782Z,1.51
2023-04-01T03:59:21.843Z,1.68
2023-04-01T04:00:21.857Z,1.41
2023-04-01T04:01:22.002Z,1.81
2023-04-01T04:02:21.947Z,1.36
2023-04-01T04:03:22.070Z,1.76
2023-04-01T04:04:22.020Z,1.59
2023-04-01T04:05:22.027Z,1.31
2023-04-01T04:06:22.012Z,1.35
2023-04-01T04:07:22.060Z,1.79
2023-04-01T04:08:22.038Z,1.40
2023-04-01T04:09:22.090Z,1.65
2023-04-01T04:10:22.128Z,1.62
2023-04-01T04:11:22.132Z,1.32
2023-04-01T04:12:22.185Z,1.47
2023-04-01T04:13:22.188Z,1.38
2023-04-01T04:14:22.262Z,1.49
2023-04-01T04:15:22.281Z,1.80
2023-04-01T04:16:22.314Z,1.51
2023-04-01T04:17:22.991Z,1.60
2023-04-01T04:18:22.347Z,1.41
2023-04-01T04:19:22.341Z,1.70
2023-04-01T04:20:22.388Z,1.72
2023-04-01T04:21:22.459Z,1.39
2023-04-01T04:22:22.429Z,1.39
2023-04-01T04:23:22.492Z,1.55
2023-04-01T04:24:22.556Z,1.64
2023-04-01T04:25:22.706Z,1.32
2023-04-01T04:26:22.717Z,1.58
2023-04-01T04:27:22.807Z,1.50
2023-04-01T04:28:22.837Z,1.62
2023-04-01T04:29:22.947Z,1.35
2023-04-01T04:30:22.994Z,1.42
2023-04-01T04:31:23.149Z,1.53
2023-04-01T04:32:23.283Z,1.59
2023-04-01T04:33:23.231Z,1.37
2023-04-01T04:34:23.327Z,1.52
2023-04-01T04:35:23.413Z,1.56
2023-04-01T04:36:23.510Z,1.32
2023-04-01T04:37:23.557Z,1.23
2023-04-01T04:38:23.645Z,1.45
2023-04-01T04:39:23.732Z,1.38
2023-04-01T04:40:23.811Z,1.45
2023-04-01T04:41:23.869Z,1.65
2023-04-01T04:42:23.942Z,1.62
2023-04-01T04:43:24.002Z,1.37
2023-04-01T04:44:24.120Z,1.50
2023-04-01T04:45:24.178Z,1.18
2023-04-01T04:46:24.351Z,1.50
2023-04-01T04:47:24.336Z,1.16
2023-04-01T04:48:24.406Z,1.38
2023-04-01T04:49:24.515Z,1.61
2023-04-01T04:50:24.553Z,1.32
2023-04-01T04:51:24.654Z,1.50
2023-04-01T04:52:24.655Z,1.52
2023-04-01T04:53:24.732Z,1.59
2023-04-01T04:54:24.853Z,1.31
2023-04-01T04:55:24.930Z,1.79
2023-04-01T04:56:25.000Z,1.44
2023-04-01T04:57:25.086Z,1.47
2023-04-01T04:58:25.152Z,1.32
2023-04-01T04:59:25.205Z,1.34
2023-04-01T05:00:25.310Z,1.42
2023-04-01T05:01:25.424Z,1.41
2023-04-01T05:02:25.478Z,1.99
2023-04-01T05:03:25.587Z,1.37
2023-04-01T05:04:25.611Z,1.42
2023-04-01T05:05:25.688Z,1.43
2023-04-01T05:06:25.770Z,1.60
2023-04-01T05:07:25.843Z,1.59
2023-04-01T05:08:25.871Z,1.24
2023-04-01T05:09:25.954Z,1.62
2023-04-01T05:10:26.025Z,1.32
2023-04-01T05:11:26.137Z,1.67
2023-04-01T05:12:26.173Z,1.36
2023-04-01T05:13:26.242Z,1.36
2023-04-01T05:14:26.363Z,1.75
2023-04-01T05:15:26.406Z,1.41
2023-04-01T05:16:26.511Z,1.28
2023-04-01T05:17:26.586Z,1.43
2023-04-01T05:18:26.646Z,1.45
2023-04-01T05:19:26.968Z,1.44
2023-04-01T05:20:26.802Z,1.46
2023-04-01T05:21:26.890Z,1.39
2023-04-01T05:22:26.959Z,1.57
2023-04-01T05:23:27.007Z,1.53
2023-04-01T05:24:27.077Z,1.67
2023-04-01T05:25:27.139Z,1.67
2023-04-01T05:26:27.217Z,1.46
2023-04-01T05:27:27.321Z,1.53
2023-04-01T05:28:27.350Z,1.41
2023-04-01T05:29:27.450Z,1.42
2023-04-01T05:30:27.508Z,1.40
2023-04-01T05:31:27.768Z,1.72
2023-04-01T05:32:27.660Z,1.50
2023-04-01T05:33:27.713Z,1.30
2023-04-01T05:34:27.780Z,1.40
2023-04-01T05:35:27.876Z,1.26
2023-04-01T05:36:27.904Z,1.49
2023-04-01T05:37:27.974Z,1.46
2023-04-01T05:38:28.023Z,1.57
2023-04-01T05:39:28.089Z,1.76
2023-04-01T05:40:28.182Z,1.12
2023-04-01T05:41:28.301Z,1.68
2023-04-01T05:42:28.342Z,1.69
2023-04-01T05:43:28.405Z,1.59
2023-04-01T05:44:28.457Z,1.30
2023-04-01T05:45:28.519Z,1.42
2023-04-01T05:46:28.662Z,1.85
2023-04-01T05:47:28.701Z,1.53
2023-04-01T05:48:28.741Z,1.31
2023-04-01T05:49:29.012Z,1.88
2023-04-01T05:50:28.897Z,1.44
2023-04-01T05:51:28.947Z,1.76
2023-04-01T05:52:29.030Z,1.54
2023-04-01T05:53:29.094Z,1.21
2023-04-01T05:54:29.172Z,1.55
2023-04-01T05:55:29.201Z,1.79
2023-04-01T05:56:29.267Z,1.65
2023-04-01T05:57:29.375Z,1.46
2023-04-01T05:58:29.381Z,1.55
2023-04-01T05:59:29.448Z,1.56
2023-04-01T06:00:29.583Z,1.89
2023-04-01T06:01:29.601Z,1.68
2023-04-01T06:02:29.783Z,1.44
2023-04-01T06:03:29.792Z,1.77
2023-04-01T06:04:29.815Z,1.61
2023-04-01T06:05:29.889Z,1.90
2023-04-01T06:06:29.947Z,1.51
2023-04-01T06:07:29.991Z,2.23
2023-04-01T06:08:30.060Z,1.52
2023-04-01T06:09:30.234Z,1.79
2023-04-01T06:10:30.263Z,1.57
2023-04-01T06:11:30.308Z,1.70
2023-04-01T06:12:30.370Z,1.54
2023-04-01T06:13:30.444Z,1.78
2023-04-01T06:14:30.519Z,1.75
2023-04-01T06:15:30.575Z,1.76
2023-04-01T06:16:30.663Z,1.69
2023-04-01T06:17:30.708Z,1.41
2023-04-01T06:18:30.766Z,1.53
2023-04-01T06:19:30.863Z,1.76
2023-04-01T06:20:30.907Z,1.82
2023-04-01T06:21:30.989Z,1.81
2023-04-01T06:22:31.024Z,1.58
2023-04-01T06:23:31.097Z,1.53
2023-04-01T06:24:31.189Z,1.84
2023-04-01T06:25:31.523Z,1.82
2023-04-01T06:26:31.271Z,1.62
2023-04-01T06:27:31.364Z,1.67
2023-04-01T06:28:31.432Z,1.56
2023-04-01T06:29:31.523Z,1.72
2023-04-01T06:30:31.578Z,1.64
2023-04-01T06:31:31.684Z,1.69
2023-04-01T06:32:31.725Z,2.18
2023-04-01T06:33:31.787Z,1.20
2023-04-01T06:34:31.858Z,1.84
2023-04-01T06:35:32.188Z,1.97
2023-04-01T06:36:31.978Z,1.77
2023-04-01T06:37:31.967Z,1.65
2023-04-01T06:38:32.075Z,1.70
2023-04-01T06:39:32.152Z,1.68
2023-04-01T06:40:32.246Z,1.54
2023-04-01T06:41:32.261Z,1.91
2023-04-01T06:42:32.311Z,1.68
2023-04-01T06:43:32.380Z,1.51
2023-04-01T06:44:32.468Z,1.89
2023-04-01T06:45:32.808Z,1.75
2023-04-01T06:46:32.629Z,1.66
2023-04-01T06:47:32.690Z,1.72
2023-04-01T06:48:32.950Z,1.32
2023-04-01T06:49:32.789Z,1.34
2023-04-01T06:50:32.906Z,1.85
2023-04-01T06:51:32.941Z,1.43
2023-04-01T06:52:33.005Z,1.65
2023-04-01T06:53:33.057Z,1.82
2023-04-01T06:54:33.120Z,1.75
2023-04-01T06:55:33.327Z,1.75
2023-04-01T06:56:33.254Z,1.77
2023-04-01T06:57:33.343Z,1.72
2023-04-01T06:58:33.362Z,1.80
2023-04-01T06:59:33.449Z,1.49
2023-04-01T07:00:33.484Z,1.92
2023-04-01T07:01:33.615Z,1.68
2023-04-01T07:02:33.633Z,1.76
2023-04-01T07:03:33.708Z,1.83
2023-04-01T07:04:33.774Z,1.83
2023-04-01T07:05:34.069Z,1.87
2023-04-01T07:06:33.904Z,1.47
2023-04-01T07:07:33.956Z,1.41
2023-04-01T07:08:34.047Z,1.83
2023-04-01T07:09:34.162Z,1.36
2023-04-01T07:10:34.114Z,1.89
2023-04-01T07:11:34.202Z,2.07
2023-04-01T07:12:34.268Z,1.49
2023-04-01T07:13:34.330Z,1.81
2023-04-01T07:14:34.400Z,1.73
2023-04-01T07:15:34.633Z,2.11
2023-04-01T07:16:34.638Z,1.86
2023-04-01T07:17:34.598Z,1.73
2023-04-01T07:18:34.665Z,2.40
2023-04-01T07:19:34.711Z,1.77
2023-04-01T07:20:34.668Z,1.73
2023-04-01T07:21:34.724Z,1.87
2023-04-01T07:22:34.756Z,1.95
2023-04-01T07:23:34.746Z,2.00
2023-04-01T07:24:34.771Z,2.12
2023-04-01T07:25:35.048Z,1.98
2023-04-01T07:26:34.806Z,1.83
2023-04-01T07:27:34.816Z,2.01
2023-04-01T07:28:34.931Z,1.86
2023-04-01T07:29:34.900Z,1.50
2023-04-01T07:30:34.896Z,1.95
2023-04-01T07:31:34.934Z,1.97
2023-04-01T07:32:36.305Z,1.55
2023-04-01T07:33:34.952Z,1.56
2023-04-01T07:34:34.948Z,2.08
2023-04-01T07:35:35.295Z,1.99
2023-04-01T07:36:34.992Z,2.04
2023-04-01T07:37:35.018Z,1.61
2023-04-01T07:38:35.054Z,1.79
2023-04-01T07:39:35.087Z,1.69
2023-04-01T07:40:35.069Z,1.67
2023-04-01T07:41:35.115Z,1.46
2023-04-01T07:42:35.127Z,1.70
2023-04-01T07:43:35.139Z,1.87
2023-04-01T07:44:35.176Z,1.67
2023-04-01T07:45:35.319Z,2.08
2023-04-01T07:46:35.266Z,2.02
2023-04-01T07:47:35.265Z,1.92
2023-04-01T07:48:35.284Z,1.61
2023-04-01T07:49:35.254Z,1.62
2023-04-01T07:50:35.289Z,1.85
2023-04-01T07:51:35.341Z,1.58
2023-04-01T07:52:35.413Z,1.65
2023-04-01T07:53:35.410Z,1.96
2023-04-01T07:54:35.473Z,2.12
2023-04-01T07:55:35.872Z,2.23
2023-04-01T07:56:35.595Z,1.73
2023-04-01T07:57:35.681Z,2.17
2023-04-01T07:58:35.731Z,1.92
2023-04-01T07:59:35.819Z,1.80
2023-04-01T08:00:35.883Z,1.91
2023-04-01T08:01:35.932Z,1.78
2023-04-01T08:02:36.005Z,1.89
2023-04-01T08:03:36.135Z,1.51
2023-04-01T08:04:36.166Z,2.00
2023-04-01T08:05:36.167Z,1.79
2023-04-01T08:06:36.241Z,2.08
2023-04-01T08:07:36.317Z,1.91
2023-04-01T08:08:36.397Z,1.88
2023-04-01T08:09:36.418Z,1.90
2023-04-01T08:10:36.476Z,1.91
2023-04-01T08:11:36.537Z,1.80
2023-04-01T08:12:36.614Z,1.97
2023-04-01T08:13:36.680Z,1.43
2023-04-01T08:14:36.721Z,1.73
2023-04-01T08:15:36.817Z,1.86
2023-04-01T08:16:36.891Z,1.90
2023-04-01T08:17:36.906Z,2.13
2023-04-01T08:18:36.999Z,1.81
2023-04-01T08:19:37.065Z,1.47
2023-04-01T08:20:37.136Z,1.90
2023-04-01T08:21:37.210Z,1.92
2023-04-01T08:22:37.244Z,1.93
2023-04-01T08:23:37.301Z,1.84
2023-04-01T08:24:47.070Z,1.75
2023-04-01T08:25:38.366Z,1.80
2023-04-01T08:26:37.404Z,1.91
2023-04-01T08:27:37.430Z,1.51
2023-04-01T08:28:37.464Z,2.08
2023-04-01T08:29:37.445Z,1.58
2023-04-01T08:30:37.480Z,1.95
2023-04-01T08:31:37.491Z,2.02
2023-04-01T08:32:37.570Z,1.88
2023-04-01T08:33:37.540Z,1.82
2023-04-01T08:34:37.592Z,2.03
2023-04-01T08:35:38.824Z,1.87
2023-04-01T08:36:37.601Z,1.70
2023-04-01T08:37:37.585Z,2.05
2023-04-01T08:38:37.611Z,2.12
2023-04-01T08:39:37.639Z,1.92
2023-04-01T08:40:37.653Z,1.72
2023-04-01T08:41:37.735Z,1.80
2023-04-01T08:42:37.766Z,1.46
2023-04-01T08:43:37.800Z,1.87
2023-04-01T08:44:37.863Z,1.88
2023-04-01T08:45:37.940Z,1.77
2023-04-01T08:46:38.004Z,1.67
2023-04-01T08:47:38.073Z,1.46
2023-04-01T08:48:38.098Z,1.86
2023-04-01T08:49:38.201Z,1.90
2023-04-01T08:50:38.222Z,1.90
2023-04-01T08:51:38.256Z,2.26
2023-04-01T08:52:38.317Z,2.00
2023-04-01T08:53:38.382Z,2.14
2023-04-01T08:54:38.458Z,1.99
2023-04-01T08:55:38.504Z,2.12
2023-04-01T08:56:38.556Z,2.42
2023-04-01T08:57:38.591Z,2.17
2023-04-01T08:58:38.664Z,2.19
2023-04-01T08:59:38.725Z,1.67
2023-04-01T09:00:38.807Z,2.01
2023-04-01T09:01:38.834Z,1.97
2023-04-01T09:02:38.989Z,1.97
2023-04-01T09:03:38.966Z,1.99
2023-04-01T09:04:39.009Z,1.80
2023-04-01T09:05:39.022Z,2.31
2023-04-01T09:06:39.121Z,1.76
2023-04-01T09:07:39.163Z,2.09
2023-04-01T09:08:39.223Z,1.48
2023-04-01T09:09:39.311Z,1.89
2023-04-01T09:10:39.346Z,1.91
2023-04-01T09:11:39.412Z,2.07
2023-04-01T09:12:39.467Z,1.77
2023-04-01T09:13:39.521Z,2.27
2023-04-01T09:14:39.609Z,1.87
2023-04-01T09:15:39.643Z,2.33
2023-04-01T09:16:39.671Z,2.05
2023-04-01T09:17:39.796Z,1.89
2023-04-01T09:18:39.819Z,1.48
2023-04-01T09:19:39.882Z,1.56
2023-04-01T09:20:39.913Z,2.09
2023-04-01T09:21:39.972Z,1.82
2023-04-01T09:22:40.071Z,1.98
2023-04-01T09:23:40.114Z,1.83
2023-04-01T09:24:40.156Z,1.74
2023-04-01T09:25:40.203Z,1.94
2023-04-01T09:26:40.264Z,1.98
2023-04-01T09:27:40.318Z,2.17
2023-04-01T09:28:40.374Z,2.09
2023-04-01T09:29:40.429Z,2.03
2023-04-01T09:30:40.513Z,1.70
2023-04-01T09:31:40.592Z,1.80
2023-04-01T09:32:40.610Z,1.97
2023-04-01T09:33:40.657Z,1.80
2023-04-01T09:34:40.748Z,2.08
2023-04-01T09:35:40.890Z,1.26
2023-04-01T09:36:40.880Z,1.71
2023-04-01T09:37:40.887Z,1.89
2023-04-01T09:38:40.959Z,2.00
2023-04-01T09:39:41.003Z,1.89
2023-04-01T09:40:41.086Z,1.88
2023-04-01T09:41:41.115Z,2.07
2023-04-01T09:42:41.165Z,2.17
2023-04-01T09:43:41.309Z,1.55
2023-04-01T09:44:42.874Z,1.44
2023-04-01T09:45:41.318Z,1.93
2023-04-01T09:46:41.562Z,1.78
2023-04-01T09:47:41.510Z,1.85
2023-04-01T09:48:41.537Z,1.84
2023-04-01T09:49:41.704Z,1.35
2023-04-01T09:50:41.641Z,1.54
2023-04-01T09:51:41.740Z,1.73
2023-04-01T09:52:41.750Z,1.90
2023-04-01T09:53:41.815Z,1.74
2023-04-01T09:54:41.863Z,1.69
2023-04-01T09:55:41.920Z,1.54
2023-04-01T09:56:41.982Z,1.64
2023-04-01T09:57:41.996Z,1.37
2023-04-01T09:58:43.811Z,1.77
2023-04-01T09:59:42.133Z,1.72
2023-04-01T10:00:42.189Z,1.45
2023-04-01T10:01:42.292Z,1.77
2023-04-01T10:02:42.329Z,1.45
2023-04-01T10:03:42.342Z,1.35
2023-04-01T10:04:42.420Z,1.51
2023-04-01T10:05:42.458Z,1.30
2023-04-01T10:06:42.478Z,1.44
2023-04-01T10:07:42.600Z,1.62
2023-04-01T10:08:42.649Z,1.50
2023-04-01T10:09:42.683Z,1.52
2023-04-01T10:10:42.745Z,1.79
2023-04-01T10:11:42.820Z,1.65
2023-04-01T10:12:42.883Z,1.90
2023-04-01T10:13:42.892Z,1.51
2023-04-01T10:14:42.950Z,1.81
2023-04-01T10:15:43.026Z,1.82
2023-04-01T10:16:43.128Z,1.33
2023-04-01T10:17:43.152Z,1.56
2023-04-01T10:18:43.182Z,1.44
2023-04-01T10:19:43.322Z,1.83
2023-04-01T10:20:43.322Z,1.65
2023-04-01T10:21:43.386Z,1.51
2023-04-01T10:22:43.452Z,1.42
2023-04-01T10:23:43.516Z,1.59
2023-04-01T10:24:43.559Z,1.62
2023-04-01T10:25:43.611Z,1.45
2023-04-01T10:26:43.641Z,1.64
2023-04-01T10:27:43.713Z,1.34
2023-04-01T10:28:43.761Z,1.33
2023-04-01T10:29:43.850Z,1.32
2023-04-01T10:30:43.927Z,1.64
2023-04-01T10:31:43.999Z,1.44
2023-04-01T10:32:44.782Z,1.62
2023-04-01T10:33:44.038Z,1.46
2023-04-01T10:34:44.149Z,1.55
2023-04-01T10:35:44.207Z,1.57
2023-04-01T10:36:44.212Z,1.58
2023-04-01T10:37:44.294Z,1.49
2023-04-01T10:38:44.341Z,1.60
2023-04-01T10:39:44.442Z,1.42
2023-04-01T10:40:44.450Z,1.78
2023-04-01T10:41:44.522Z,1.41
2023-04-01T10:42:44.588Z,1.97
2023-04-01T10:43:44.652Z,1.11
2023-04-01T10:44:44.689Z,1.47
2023-04-01T10:45:44.789Z,1.57
2023-04-01T10:46:44.817Z,1.09
2023-04-01T10:47:44.960Z,1.55
2023-04-01T10:48:44.912Z,1.68
2023-04-01T10:49:44.999Z,1.30
2023-04-01T10:50:44.991Z,1.21
2023-04-01T10:51:45.096Z,1.36
2023-04-01T10:52:45.123Z,1.36
2023-04-01T10:53:45.165Z,1.33
2023-04-01T10:54:45.216Z,1.57
2023-04-01T10:55:45.312Z,1.61
2023-04-01T10:56:45.363Z,1.16
2023-04-01T10:57:45.384Z,1.21
2023-04-01T10:58:45.448Z,1.13
2023-04-01T10:59:45.516Z,1.43
2023-04-01T11:00:45.557Z,1.47
2023-04-01T11:01:45.744Z,1.31
2023-04-01T11:02:45.822Z,1.25
2023-04-01T11:03:45.858Z,1.47
2023-04-01T11:04:45.811Z,1.21
2023-04-01T11:05:45.851Z,1.39
2023-04-01T11:06:45.927Z,1.03
2023-04-01T11:07:50.460Z,1.26
2023-04-01T11:08:47.007Z,1.26
2023-04-01T11:09:46.010Z,1.38
2023-04-01T11:10:46.023Z,1.72
2023-04-01T11:11:46.088Z,1.36
2023-04-01T11:12:46.079Z,1.26
2023-04-01T11:13:46.099Z,1.47
2023-04-01T11:14:46.122Z,1.31
2023-04-01T11:15:46.184Z,1.03
2023-04-01T11:16:46.173Z,1.63
2023-04-01T11:17:46.202Z,1.28
2023-04-01T11:18:46.217Z,1.34
2023-04-01T11:19:46.255Z,1.17
2023-04-01T11:20:46.291Z,1.11
2023-04-01T11:21:47.110Z,1.05
2023-04-01T11:22:46.347Z,1.05
2023-04-01T11:23:58.315Z,1.44
2023-04-01T11:24:47.393Z,1.49
2023-04-01T11:25:46.380Z,1.21
2023-04-01T11:26:46.447Z,0.86
2023-04-01T11:27:46.441Z,1.58
2023-04-01T11:28:46.469Z,1.44
2023-04-01T11:29:58.836Z,1.19
2023-04-01T11:30:47.537Z,1.11
2023-04-01T11:31:46.588Z,1.29
2023-04-01T11:32:46.704Z,1.25
2023-04-01T11:33:46.577Z,1.09
2023-04-01T11:34:46.615Z,1.25
2023-04-01T11:35:46.660Z,1.07
2023-04-01T11:36:46.658Z,1.17
2023-04-01T11:37:46.658Z,1.47
2023-04-01T11:38:46.656Z,1.20
2023-04-01T11:39:46.674Z,1.18
2023-04-01T11:40:46.701Z,1.15
2023-04-01T11:41:46.727Z,1.22
2023-04-01T11:42:46.745Z,1.05
2023-04-01T11:43:46.756Z,1.01
2023-04-01T11:44:46.782Z,1.37
2023-04-01T11:45:46.825Z,1.20
2023-04-01T11:46:46.912Z,1.17
2023-04-01T11:47:46.877Z,1.17
2023-04-01T11:48:46.856Z,1.12
2023-04-01T11:49:46.913Z,1.07
2023-04-01T11:50:46.961Z,0.97
2023-04-01T11:51:46.968Z,1.04
2023-04-01T11:52:47.025Z,1.46
2023-04-01T11:53:47.101Z,1.56
2023-04-01T11:54:47.101Z,1.37
2023-04-01T11:55:49.202Z,1.27
2023-04-01T11:56:47.216Z,1.15
2023-04-01T11:57:47.179Z,1.13
2023-04-01T11:58:47.224Z,0.90
2023-04-01T11:59:47.232Z,0.96
2023-04-01T12:00:47.238Z,0.77
2023-04-01T12:01:47.265Z,0.99
2023-04-01T12:02:47.336Z,1.15
2023-04-01T12:03:47.429Z,0.85
2023-04-01T12:04:47.372Z,1.14
2023-04-01T12:05:47.368Z,1.18
2023-04-01T12:06:47.386Z,1.14
2023-04-01T12:07:47.400Z,1.25
2023-04-01T12:08:47.412Z,0.95
2023-04-01T12:09:47.417Z,1.15
2023-04-01T12:10:47.429Z,1.06
2023-04-01T12:11:47.446Z,1.29
2023-04-01T12:12:58.011Z,1.13
2023-04-01T12:13:48.480Z,0.90
2023-04-01T12:14:47.481Z,1.03
2023-04-01T12:15:47.496Z,1.18
2023-04-01T12:16:47.589Z,1.06
2023-04-01T12:17:47.546Z,1.22
2023-04-01T12:18:47.568Z,1.11
2023-04-01T12:19:47.574Z,0.83
2023-04-01T12:20:47.610Z,1.02
2023-04-01T12:21:47.644Z,0.95
2023-04-01T12:22:47.642Z,1.24
2023-04-01T12:23:47.627Z,1.24
2023-04-01T12:24:47.655Z,1.12
2023-04-01T12:25:47.675Z,1.05
2023-04-01T12:26:47.704Z,0.96
2023-04-01T12:27:47.698Z,1.04
2023-04-01T12:28:47.699Z,0.85
2023-04-01T12:29:47.704Z,0.83
2023-04-01T12:30:47.756Z,1.13
2023-04-01T12:31:47.808Z,0.74
2023-04-01T12:32:47.805Z,0.93
2023-04-01T12:33:47.808Z,0.96
2023-04-01T12:34:47.813Z,0.97
2023-04-01T12:35:47.911Z,0.97
2023-04-01T12:36:49.335Z,0.95
2023-04-01T12:37:47.908Z,1.26
2023-04-01T12:38:47.947Z,0.98
2023-04-01T12:39:47.965Z,0.99
2023-04-01T12:40:47.963Z,0.96
2023-04-01T12:41:48.000Z,1.20
2023-04-01T12:42:48.012Z,0.99
2023-04-01T12:43:48.032Z,1.08
2023-04-01T12:44:48.032Z,1.04
2023-04-01T12:45:48.129Z,1.05
2023-04-01T12:46:48.092Z,0.81
2023-04-01T12:47:48.153Z,0.89
2023-04-01T12:48:48.100Z,0.70
2023-04-01T12:49:48.157Z,0.92
2023-04-01T12:50:48.190Z,0.96
2023-04-01T12:51:48.189Z,0.67
2023-04-01T12:52:48.204Z,0.66
2023-04-01T12:53:48.244Z,1.00
2023-04-01T12:54:48.228Z,0.85
2023-04-01T12:55:48.249Z,0.69
2023-04-01T12:56:48.316Z,0.96
2023-04-01T12:57:48.293Z,0.85
2023-04-01T12:58:48.332Z,0.77
2023-04-01T12:59:48.356Z,0.65
2023-04-01T13:00:48.325Z,1.09
2023-04-01T13:01:48.385Z,0.57
2023-04-01T13:02:48.383Z,0.53
2023-04-01T13:03:48.416Z,0.66
2023-04-01T13:04:48.436Z,0.49
2023-04-01T13:05:48.458Z,0.60
2023-04-01T13:06:49.155Z,0.57
2023-04-01T13:07:48.465Z,0.61
2023-04-01T13:08:48.463Z,0.84
2023-04-01T13:09:52.040Z,0.47
2023-04-01T13:10:48.538Z,0.92
2023-04-01T13:11:48.537Z,0.88
2023-04-01T13:12:48.564Z,0.74
2023-04-01T13:13:48.565Z,0.51
2023-04-01T13:14:48.593Z,0.74
2023-04-01T13:15:48.636Z,0.91
2023-04-01T13:16:48.610Z,0.74
2023-04-01T13:17:48.693Z,0.62
2023-04-01T13:18:48.675Z,0.63